Latest Weather Observations for Pirlangimpi

IDD60901

Issued at 5:01 pm CST Friday 18 January 2019 (issued every 10 minutes, with the page automatically refreshed every 10 minutes)

About weather observations | Map of Darwin area stations | Latest observations for Darwin area | Other Formats
Station Details ID: 014142 Name: PIRLANGIMPI AIRPORT Lat: -11.40 Lon: 130.42 Height: 18.3 m
Data from the previous 72 hours. | See also: Recent months at Pirlangimpi
Date/Time
CST
Temp
°C
App
Temp
°C
Dew
Point
°C
Rel
Hum
%
Delta-T
°C
Wind Press
QNH
hPa
Press
MSL
hPa
Rain since
9am
mm
Dir  Spd
km/h
Gust
km/h
Spd
kts
Gust
kts
18/05:00pm 25.1 29.6 23.7 92 1.0 WSW 6 17 3 9 1005.8 1005.7 16.6
18/04:30pm 25.7 30.1 24.5 93 0.8 SSW 9 13 5 7 1005.8 1005.7 12.8
18/04:00pm 27.1 31.4 24.2 84 2.0 ESE 9 17 5 9 1005.3 1005.2 0.2
18/03:30pm 29.6 34.9 24.9 76 3.3 W 6 9 3 5 1005.2 1005.1 0.2
18/03:00pm 30.4 34.3 23.6 67 4.7 WSW 9 19 5 10 1005.2 1005.1 0.2
18/02:30pm 32.2 37.0 24.5 64 5.4 WSW 7 20 4 11 1005.5 1005.4 0.2
18/02:00pm 32.4 37.5 25.0 65 5.2 SSW 7 15 4 8 1006.0 1005.9 0.2
18/01:30pm 32.1 36.7 24.2 63 5.5 SW 7 13 4 7 1006.3 1006.2 0.2
18/01:00pm 31.6 36.4 24.2 65 5.2 WSW 6 9 3 5 1006.5 1006.4 0.2
18/12:30pm 30.3 34.3 24.4 70 4.1 SSW 11 15 6 8 1006.7 1006.6 0.2
18/12:00pm 30.0 34.6 25.3 76 3.3 SSW 11 17 6 9 1006.9 1006.8 0.2
18/11:30am 29.8 35.4 24.9 75 3.4 W 4 7 2 4 1007.2 1007.1 0.2
18/11:00am 29.4 34.4 24.5 75 3.4 W 6 9 3 5 1007.2 1007.1 0.2
18/10:30am 28.8 33.9 24.6 78 2.9 WSW 6 9 3 5 1007.2 1007.1 0.2
18/10:00am 28.3 34.1 25.1 83 2.2 NW 4 7 2 4 1007.0 1006.9 0.0
18/09:30am 27.6 33.4 24.6 84 2.1 ENE 2 6 1 3 1006.8 1006.7 0.0
18/09:00am 26.8 32.4 24.3 86 1.7 SE 2 4 1 2 1006.4 1006.3 8.2
18/08:30am 26.0 31.1 24.0 89 1.4 E 4 4 2 2 1006.4 1006.3 8.2
18/08:00am 25.6 30.5 23.7 89 1.3 NW 4 6 2 3 1006.8 1006.7 8.2
18/07:30am 25.1 29.4 23.7 92 1.0 ENE 7 9 4 5 1006.6 1006.5 8.2
18/07:00am 24.6 29.9 23.7 95 0.6 ENE 2 4 1 2 1006.5 1006.4 8.2
18/06:30am 24.6 30.2 23.6 94 0.7 CALM 0 4 0 2 1005.5 1005.4 8.2
18/06:00am 24.9 30.6 23.7 93 0.8 CALM 0 0 0 0 1004.9 1004.8 8.2
18/05:30am 25.2 30.6 23.8 92 1.0 SE 2 4 1 2 1004.7 1004.6 8.2
18/05:00am 25.5 30.3 24.1 92 1.0 SE 6 7 3 4 1005.0 1004.9 8.2
18/04:30am 25.9 30.6 24.9 94 0.7 S 9 15 5 8 1005.4 1005.3 8.2
18/04:00am 25.8 32.2 24.9 95 0.6 CALM 0 6 0 3 1005.5 1005.4 8.2
18/03:30am 25.9 31.6 25.0 95 0.6 ESE 4 6 2 3 1005.8 1005.7 8.2
18/03:00am 26.0 31.7 25.0 94 0.7 SE 4 6 2 3 1005.9 1005.8 8.2
18/02:30am 25.9 31.6 25.0 95 0.6 SSE 4 6 2 3 1006.1 1006.0 8.2
18/02:00am 25.6 31.8 24.6 94 0.7 CALM 0 2 0 1 1006.3 1006.2 8.2
18/01:30am 25.6 31.8 24.6 94 0.7 CALM 0 0 0 0 1006.7 1006.6 8.2
18/01:00am 25.6 31.8 24.6 94 0.7 CALM 0 0 0 0 1007.1 1007.0 8.2
18/12:30am 25.7 32.0 24.7 94 0.7 CALM 0 0 0 0 1007.7 1007.6 8.2
18/12:00am 25.9 32.2 24.7 93 0.8 CALM 0 0 0 0 1007.9 1007.8 8.2
 
Date/Time
CST
Temp
°C
App
Temp
°C
Dew
Point
°C
Rel
Hum
%
Delta-T
°C
Wind Press
QNH
hPa
Press
MSL
hPa
Rain since
9am
mm
Dir  Spd
km/h
Gust
km/h
Spd
kts
Gust
kts
17/11:30pm 26.1 32.5 24.9 93 0.8 CALM 0 0 0 0 1008.1 1008.0 8.2
17/11:00pm 26.1 32.5 24.9 93 0.8 CALM 0 0 0 0 1008.2 1008.1 8.2
17/10:30pm 26.0 31.3 24.4 91 1.1 NE 4 6 2 3 1008.1 1008.0 8.2
17/10:00pm 25.7 30.8 24.1 91 1.1 NE 4 6 2 3 1007.6 1007.5 8.2
17/09:30pm 25.4 30.3 23.6 90 1.2 NNE 4 6 2 3 1007.0 1006.9 8.2
17/09:00pm 25.4 30.3 23.6 90 1.2 NE 4 6 2 3 1006.8 1006.7 8.2
17/08:30pm 25.7 31.2 24.1 91 1.1 NE 2 4 1 2 1006.5 1006.4 8.2
17/08:00pm 25.5 30.6 24.1 92 1.0 NE 4 4 2 2 1005.9 1005.8 8.2
17/07:30pm 25.8 31.8 24.2 91 1.1 CALM 0 0 0 0 1005.1 1005.0 8.2
17/07:00pm 26.3 32.4 24.5 90 1.2 CALM 0 0 0 0 1004.7 1004.6 8.2
17/06:30pm 26.4 32.1 24.4 89 1.4 NNE 2 6 1 3 1004.4 1004.3 8.2
17/06:00pm 26.0 31.8 24.0 89 1.4 CALM 0 0 0 0 1004.2 1004.1 8.2
17/05:30pm 25.3 31.3 24.3 94 0.7 CALM 0 0 0 0 1004.2 1004.1 8.2
17/05:00pm 25.2 31.0 24.0 93 0.8 CALM 0 0 0 0 1004.7 1004.6 7.8
17/04:30pm 25.0 29.5 23.6 92 1.0 SSW 6 7 3 4 1005.3 1005.2 7.6
17/04:00pm 24.8 28.0 23.0 90 1.2 SE 11 19 6 10 1005.7 1005.6 5.0
17/03:30pm 25.3 28.8 23.5 90 1.2 ENE 11 17 6 9 1005.4 1005.3 3.4
17/03:00pm 27.6 29.9 22.1 72 3.7 NE 13 24 7 13 1005.7 1005.6 0.0
17/02:30pm 30.0 33.8 23.4 67 4.6 WNW 9 24 5 13 1005.4 1005.3 0.0
17/02:00pm 32.2 35.3 22.9 58 6.4 W 11 24 6 13 1005.7 1005.6 0.0
17/01:30pm 33.2 36.8 22.0 51 7.7 WSW 6 9 3 5 1005.8 1005.7 0.0
17/01:00pm 32.3 36.2 21.8 54 7.1 SE 4 11 2 6 1006.2 1006.1 0.0
17/12:30pm 31.7 35.7 22.7 59 6.2 SSW 6 9 3 5 1006.4 1006.3 0.0
17/12:00pm 31.4 35.9 23.0 61 5.8 SW 4 7 2 4 1006.6 1006.5 0.0
17/11:30am 31.5 35.8 23.3 61 5.7 SW 6 9 3 5 1006.8 1006.7 0.0
17/11:00am 30.4 34.1 22.6 63 5.3 SW 7 15 4 8 1007.1 1007.0 0.0
17/10:30am 29.4 33.9 23.6 71 4.0 SSW 6 9 3 5 1007.4 1007.3 0.0
17/10:00am 28.6 33.5 23.7 75 3.4 SSE 4 6 2 3 1007.5 1007.4 0.0
17/09:30am 27.7 32.4 23.3 77 3.0 SSE 4 6 2 3 1007.6 1007.5 0.0
17/09:00am 27.2 31.7 23.0 78 2.9 SE 4 6 2 3 1007.7 1007.6 0.0
17/08:30am 27.1 31.2 23.3 80 2.6 SSE 7 11 4 6 1007.7 1007.6 0.0
17/08:00am 27.0 31.6 24.1 84 2.0 S 7 13 4 7 1007.6 1007.5 0.0
17/07:30am 26.6 31.5 24.3 87 1.6 SSE 6 7 3 4 1007.4 1007.3 0.0
17/07:00am 26.8 32.1 25.0 90 1.3 SSW 6 7 3 4 1007.2 1007.1 0.0
17/06:30am 26.4 32.0 25.4 94 0.7 S 6 9 3 5 1006.8 1006.7 0.0
17/06:00am 25.7 32.0 24.8 95 0.6 CALM 0 0 0 0 1006.4 1006.3 0.0
17/05:30am 25.6 31.9 24.7 95 0.6 CALM 0 0 0 0 1006.0 1005.9 0.0
17/05:00am 25.7 32.0 24.8 95 0.6 CALM 0 0 0 0 1005.8 1005.7 0.0
17/04:30am 25.7 32.0 24.8 95 0.6 CALM 0 0 0 0 1005.9 1005.8 0.0
17/04:00am 25.7 32.0 24.8 95 0.6 CALM 0 0 0 0 1005.9 1005.8 0.0
17/03:30am 25.7 32.0 24.8 95 0.6 CALM 0 0 0 0 1005.9 1005.8 0.0
17/03:00am 25.7 32.0 24.7 94 0.7 CALM 0 0 0 0 1006.1 1006.0 0.0
17/02:30am 25.7 32.0 24.7 94 0.7 CALM 0 0 0 0 1006.3 1006.2 0.0
17/02:00am 25.7 32.0 24.7 94 0.7 CALM 0 0 0 0 1006.6 1006.5 0.0
17/01:30am 25.8 32.1 24.8 94 0.7 CALM 0 0 0 0 1007.0 1006.9 0.0
17/01:00am 25.8 32.1 24.8 94 0.7 CALM 0 0 0 0 1007.3 1007.2 0.0
17/12:30am 25.8 32.1 24.8 94 0.7 CALM 0 0 0 0 1007.8 1007.7 0.0
17/12:00am 25.9 32.2 24.7 93 0.8 CALM 0 0 0 0 1007.9 1007.8 0.0
 
Date/Time
CST
Temp
°C
App
Temp
°C
Dew
Point
°C
Rel
Hum
%
Delta-T
°C
Wind Press
QNH
hPa
Press
MSL
hPa
Rain since
9am
mm
Dir  Spd
km/h
Gust
km/h
Spd
kts
Gust
kts
16/11:30pm 25.9 32.2 24.7 93 0.8 CALM 0 0 0 0 1008.3 1008.2 0.0
16/11:00pm 26.0 32.2 24.6 92 1.0 CALM 0 0 0 0 1008.6 1008.5 0.0
16/10:30pm 26.4 32.7 24.8 91 1.1 CALM 0 0 0 0 1008.6 1008.5 0.0
16/10:00pm 26.5 32.9 24.9 91 1.1 CALM 0 0 0 0 1008.2 1008.1 0.0
16/09:30pm 26.8 33.3 25.0 90 1.3 CALM 0 0 0 0 1007.8 1007.7 0.0
16/09:00pm 26.9 33.3 24.9 89 1.4 CALM 0 0 0 0 1007.2 1007.1 0.0
16/08:30pm 27.5 33.5 24.9 86 1.8 ESE 2 4 1 2 1007.2 1007.1 0.0
16/08:00pm 27.7 33.3 24.9 85 2.0 ESE 4 7 2 4 1006.6 1006.5 0.0
16/07:30pm 28.2 34.0 25.2 84 2.1 ESE 4 6 2 3 1006.1 1006.0 0.0
16/07:00pm 28.7 34.1 25.1 81 2.5 SE 6 7 3 4 1005.5 1005.4 0.0
16/06:30pm 29.9 35.0 24.1 71 4.0 SSW 4 7 2 4 1005.4 1005.3 0.0
16/06:00pm 30.1 34.8 24.0 70 4.2 S 6 7 3 4 1005.4 1005.3 0.0
16/05:30pm 30.0 34.1 22.9 65 4.9 SSW 6 7 3 4 1005.4 1005.3 0.0
16/05:00pm 30.3 34.4 23.0 65 5.0 SW 6 11 3 6 1005.5 1005.4 0.0
16/04:30pm 30.0 33.7 23.2 67 4.7 SSW 9 13 5 7 1005.5 1005.4 0.0
16/04:00pm 30.3 35.1 23.5 67 4.7 W 4 9 2 5 1005.5 1005.4 0.0
16/03:30pm 31.0 35.5 23.6 64 5.1 WSW 6 9 3 5 1005.7 1005.6 0.0
16/03:00pm 31.7 35.9 23.5 62 5.7 WNW 7 13 4 7 1005.9 1005.8 0.0
16/02:30pm 31.0 35.0 23.1 63 5.4 W 7 13 4 7 1006.1 1006.0 0.0
16/02:00pm 31.9 36.4 23.7 62 5.7 WNW 6 11 3 6 1006.5 1006.4 0.0
16/01:30pm 32.4 36.7 24.2 62 5.7 SSW 9 13 5 7 1006.7 1006.6 0.0
16/01:00pm 32.3 37.7 23.8 61 5.9 SSE 2 6 1 3 1007.1 1007.0 0.0
16/12:30pm 31.1 35.8 22.7 61 5.8 E 2 4 1 2 1007.4 1007.3 0.0
16/12:00pm 30.8 35.4 22.4 61 5.7 SW 2 6 1 3 1007.6 1007.5 0.0
16/11:30am 29.9 34.5 24.1 71 4.0 NW 7 15 4 8 1007.5 1007.4 0.0
16/11:00am 29.2 34.8 24.3 75 3.4 WNW 2 4 1 2 1008.4 1008.3 0.0
16/10:30am 29.0 33.9 23.7 73 3.7 NNW 4 7 2 4 1008.3 1008.2 0.0
16/10:00am 28.0 32.7 23.4 76 3.2 S 4 4 2 2 1008.4 1008.3 0.0
16/09:30am 27.7 31.8 22.9 75 3.3 S 6 7 3 4 1008.5 1008.4 0.0
16/09:00am 27.4 32.4 23.2 78 2.9 ENE 2 4 1 2 1008.5 1008.4 1.8
16/08:30am 26.0 30.9 23.1 84 2.0 SSE 2 6 1 3 1008.4 1008.3 1.8
16/08:00am 25.1 28.8 22.6 86 1.7 ESE 7 9 4 5 1008.2 1008.1 1.8
16/07:30am 24.7 28.7 22.8 89 1.3 E 6 7 3 4 1007.9 1007.8 1.8
16/07:00am 24.3 28.2 22.6 90 1.1 ESE 6 9 3 5 1007.5 1007.4 1.8
16/06:30am 24.1 27.9 22.4 90 1.1 SE 6 7 3 4 1007.2 1007.1 1.8
16/06:00am 24.2 28.8 22.5 90 1.1 SSE 2 6 1 3 1006.9 1006.8 1.8
16/05:30am 24.3 28.5 22.4 89 1.3 SSW 4 4 2 2 1006.7 1006.6 1.8
16/05:00am 24.2 28.3 22.3 89 1.3 SSE 4 9 2 5 1007.1 1007.0 1.8
16/04:30am 24.5 27.5 22.6 89 1.3 SE 11 17 6 9 1007.2 1007.1 1.4
16/04:00am 25.3 28.6 23.2 88 1.4 SSE 11 20 6 11 1007.2 1007.1 1.0
16/03:30am 25.7 30.3 23.2 86 1.7 SSE 4 9 2 5 1007.0 1006.9 1.0
16/03:00am 25.9 31.4 24.7 93 0.8 SSE 4 6 2 3 1006.9 1006.8 1.0
16/02:30am 26.0 32.3 24.8 93 0.8 CALM 0 0 0 0 1007.4 1007.3 1.0
16/02:00am 26.1 32.5 24.9 93 0.8 CALM 0 0 0 0 1007.6 1007.5 1.0
16/01:30am 26.0 31.8 24.6 92 1.0 SE 2 4 1 2 1007.9 1007.8 1.0
16/01:00am 25.8 31.6 24.6 93 0.8 SE 2 4 1 2 1008.2 1008.1 1.0
16/12:30am 25.6 31.8 24.6 94 0.7 CALM 0 0 0 0 1008.3 1008.2 1.0
16/12:00am 25.3 31.2 24.1 93 0.8 CALM 0 0 0 0 1008.5 1008.4 1.0
 
Date/Time
CST
Temp
°C
App
Temp
°C
Dew
Point
°C
Rel
Hum
%
Delta-T
°C
Wind Press
QNH
hPa
Press
MSL
hPa
Rain since
9am
mm
Dir  Spd
km/h
Gust
km/h
Spd
kts
Gust
kts
15/11:30pm 25.2 30.9 23.8 92 1.0 CALM 0 2 0 1 1008.7 1008.6 1.0
15/11:00pm 25.2 31.0 24.0 93 0.8 CALM 0 0 0 0 1008.8 1008.7 1.0
15/10:30pm 25.4 31.4 24.2 93 0.8 CALM 0 2 0 1 1008.7 1008.6 1.0
15/10:00pm 25.4 31.2 24.0 92 1.0 CALM 0 0 0 0 1008.5 1008.4 1.0
15/09:30pm 25.5 31.0 24.1 92 1.0 SSE 2 2 1 1 1008.2 1008.1 1.0
15/09:00pm 25.6 31.2 24.2 92 1.0 S 2 4 1 2 1008.1 1008.0 1.0
15/08:30pm 25.6 31.6 24.2 92 1.0 CALM 0 0 0 0 1007.5 1007.4 1.0
15/08:00pm 25.8 32.0 24.6 93 0.8 CALM 0 0 0 0 1007.1 1007.0 1.0
15/07:30pm 25.9 32.0 24.5 92 1.0 CALM 0 0 0 0 1006.2 1006.1 1.0
15/07:00pm 26.1 32.1 24.3 90 1.2 CALM 0 0 0 0 1006.2 1006.1 1.0
15/06:30pm 26.3 31.4 24.9 92 1.0 NE 7 9 4 5 1005.8 1005.7 1.0
15/06:00pm 26.0 31.7 24.4 91 1.1 ENE 2 4 1 2 1005.3 1005.2 1.0
15/05:30pm 26.0 31.7 24.4 91 1.1 NNW 2 4 1 2 1005.1 1005.0 0.6

Latest Capital City Observations: Canberra | Sydney | Melbourne | Brisbane | Adelaide | Perth | Hobart | Darwin

Other Formats:

Comma delimited format used in spreadsheet applications
http://www.bom.gov.au/fwo/IDD60901/IDD60901.94119.axf

JavaScript Object Notation format (JSON) in row-major order
http://www.bom.gov.au/fwo/IDD60901/IDD60901.94119.json